Clarkson, Mississippi
Current Conditions -  °F | °C
As of 3:15 PM on Friday 31 Oct 2014 (Local Time) from KSTF Reporting Station
Broken Clouds Broken Clouds  
Wind Chill: 63°   Ceiling: 6000
Heat Index: 63°   Visibility: 10mi
Dew Point: 45°   Wind: 10mph
Humidity: 52%   Direction: 320°NW
Pressure: 30.02"   Gusts: 23mph
Location:  33.5435°N, 89.1359°W
Report Text: KSTF 312015Z AUTO 32009G20KT 10SM SCT041 BKN060 17/07 A3002 RMK AO2
Loading
Personal Weather Stations






























Interactive Weather Map
Tropical Storm Tracking
New forecast layout! Learn more

10-Day Weather Forecast

Advertisements
Track Severe Weather on mobile